sensor_id;sensor_type;location;lat;lon;timestamp;pressure;altitude;pressure_sealevel;temperature;humidity
15646;BME280;7922;43.622;1.476;2024-02-04T00:01:07;101783.53;;;5.96;100.00
15646;BME280;7922;43.622;1.476;2024-02-04T00:03:33;101773.78;;;5.83;100.00
15646;BME280;7922;43.622;1.476;2024-02-04T00:05:58;101723.72;;;5.63;100.00
15646;BME280;7922;43.622;1.476;2024-02-04T00:08:23;101771.25;;;5.92;100.00
15646;BME280;7922;43.622;1.476;2024-02-04T00:10:48;101774.59;;;5.71;100.00
15646;BME280;7922;43.622;1.476;2024-02-04T00:13:14;101778.13;;;5.79;100.00
15646;BME280;7922;43.622;1.476;2024-02-04T00:15:39;101774.63;;;5.80;100.00
15646;BME280;7922;43.622;1.476;2024-02-04T00:18:04;101783.53;;;5.96;100.00
15646;BME280;7922;43.622;1.476;2024-02-04T00:20:30;101759.69;;;5.72;100.00
15646;BME280;7922;43.622;1.476;2024-02-04T00:22:55;101778.19;;;5.89;100.00
15646;BME280;7922;43.622;1.476;2024-02-04T00:25:20;101780.81;;;5.92;100.00
15646;BME280;7922;43.622;1.476;2024-02-04T00:27:46;101787.94;;;6.02;100.00
15646;BME280;7922;43.622;1.476;2024-02-04T00:30:11;101780.91;;;5.98;100.00
15646;BME280;7922;43.622;1.476;2024-02-04T00:32:36;101780.78;;;5.83;100.00
15646;BME280;7922;43.622;1.476;2024-02-04T00:35:02;101769.28;;;5.70;100.00
15646;BME280;7922;43.622;1.476;2024-02-04T00:37:27;101721.81;;;5.39;100.00
15646;BME280;7922;43.622;1.476;2024-02-04T00:39:52;101777.97;;;5.52;100.00
15646;BME280;7922;43.622;1.476;2024-02-04T00:42:17;101771.81;;;5.51;100.00
15646;BME280;7922;43.622;1.476;2024-02-04T00:44:43;101735.84;;;5.41;100.00
15646;BME280;7922;43.622;1.476;2024-02-04T00:47:08;101785.94;;;5.64;100.00
15646;BME280;7922;43.622;1.476;2024-02-04T00:49:33;101736.50;;;5.13;100.00
15646;BME280;7922;43.622;1.476;2024-02-04T00:51:58;101785.78;;;5.41;100.00
15646;BME280;7922;43.622;1.476;2024-02-04T00:54:24;101728.69;;;5.20;100.00
15646;BME280;7922;43.622;1.476;2024-02-04T00:56:49;101771.00;;;5.55;100.00
15646;BME280;7922;43.622;1.476;2024-02-04T00:59:14;101778.81;;;5.51;100.00
15646;BME280;7922;43.622;1.476;2024-02-04T01:01:39;101736.66;;;5.37;100.00
15646;BME280;7922;43.622;1.476;2024-02-04T01:04:05;101756.00;;;5.44;100.00
15646;BME280;7922;43.622;1.476;2024-02-04T01:06:30;101722.56;;;5.26;100.00
15646;BME280;7922;43.622;1.476;2024-02-04T01:08:58;101784.13;;;5.59;100.00
15646;BME280;7922;43.622;1.476;2024-02-04T01:11:24;101763.06;;;5.54;100.00
15646;BME280;7922;43.622;1.476;2024-02-04T01:13:49;101711.25;;;5.31;100.00
15646;BME280;7922;43.622;1.476;2024-02-04T01:16:14;101778.91;;;5.63;100.00
15646;BME280;7922;43.622;1.476;2024-02-04T01:18:40;101775.44;;;5.67;100.00
15646;BME280;7922;43.622;1.476;2024-02-04T01:21:05;101757.91;;;5.63;100.00
15646;BME280;7922;43.622;1.476;2024-02-04T01:23:30;101718.28;;;5.40;100.00
15646;BME280;7922;43.622;1.476;2024-02-04T01:25:56;101709.59;;;5.46;100.00
15646;BME280;7922;43.622;1.476;2024-02-04T01:28:21;101757.06;;;5.73;100.00
15646;BME280;7922;43.622;1.476;2024-02-04T01:30:46;101746.47;;;5.60;100.00
15646;BME280;7922;43.622;1.476;2024-02-04T01:33:11;101759.59;;;5.58;100.00
15646;BME280;7922;43.622;1.476;2024-02-04T01:35:37;101748.16;;;5.51;100.00
15646;BME280;7922;43.622;1.476;2024-02-04T01:38:02;101743.84;;;5.60;100.00
15646;BME280;7922;43.622;1.476;2024-02-04T01:40:27;101718.41;;;5.52;100.00
15646;BME280;7922;43.622;1.476;2024-02-04T01:42:55;101689.38;;;5.37;100.00
15646;BME280;7922;43.622;1.476;2024-02-04T01:45:20;101747.44;;;5.75;100.00
15646;BME280;7922;43.622;1.476;2024-02-04T01:47:46;101741.22;;;5.66;100.00
15646;BME280;7922;43.622;1.476;2024-02-04T01:50:11;101742.16;;;5.72;100.00
15646;BME280;7922;43.622;1.476;2024-02-04T01:52:39;101758.00;;;5.82;100.00
15646;BME280;7922;43.622;1.476;2024-02-04T01:55:07;101708.75;;;5.53;100.00
15646;BME280;7922;43.622;1.476;2024-02-04T01:57:33;101763.16;;;5.69;100.00
15646;BME280;7922;43.622;1.476;2024-02-04T01:59:58;101763.19;;;5.72;100.00
15646;BME280;7922;43.622;1.476;2024-02-04T02:02:25;101713.94;;;5.42;100.00
15646;BME280;7922;43.622;1.476;2024-02-04T02:04:50;101746.44;;;5.58;100.00
15646;BME280;7922;43.622;1.476;2024-02-04T02:07:16;101762.28;;;5.69;100.00
15646;BME280;7922;43.622;1.476;2024-02-04T02:09:42;101755.31;;;5.77;100.00
15646;BME280;7922;43.622;1.476;2024-02-04T02:12:09;101786.03;;;5.83;100.00
15646;BME280;7922;43.622;1.476;2024-02-04T02:14:40;101771.97;;;5.71;100.00
15646;BME280;7922;43.622;1.476;2024-02-04T02:17:10;101792.06;;;5.63;100.00
15646;BME280;7922;43.622;1.476;2024-02-04T02:19:47;101719.19;;;5.42;100.00
15646;BME280;7922;43.622;1.476;2024-02-04T02:24:49;101774.53;;;5.65;100.00
15646;BME280;7922;43.622;1.476;2024-02-04T02:27:16;101764.81;;;5.55;100.00
15646;BME280;7922;43.622;1.476;2024-02-04T02:29:41;101777.13;;;5.62;100.00
15646;BME280;7922;43.622;1.476;2024-02-04T02:32:06;101726.13;;;5.32;100.00
15646;BME280;7922;43.622;1.476;2024-02-04T02:34:32;101762.31;;;5.73;100.00
15646;BME280;7922;43.622;1.476;2024-02-04T02:37:11;101757.97;;;5.80;100.00
15646;BME280;7922;43.622;1.476;2024-02-04T02:40:01;101769.50;;;5.93;100.00
15646;BME280;7922;43.622;1.476;2024-02-04T02:42:29;101749.22;;;5.79;100.00
15646;BME280;7922;43.622;1.476;2024-02-04T02:44:55;101756.19;;;5.76;100.00
15646;BME280;7922;43.622;1.476;2024-02-04T02:47:22;101763.25;;;5.83;100.00
15646;BME280;7922;43.622;1.476;2024-02-04T02:49:51;101750.03;;;5.69;100.00
15646;BME280;7922;43.622;1.476;2024-02-04T02:52:17;101737.72;;;5.64;100.00
15646;BME280;7922;43.622;1.476;2024-02-04T02:54:42;101687.63;;;5.39;100.00
15646;BME280;7922;43.622;1.476;2024-02-04T02:57:07;101740.41;;;5.71;100.00
15646;BME280;7922;43.622;1.476;2024-02-04T02:59:32;101696.31;;;5.23;100.00
15646;BME280;7922;43.622;1.476;2024-02-04T03:01:58;101744.56;;;5.39;100.00
15646;BME280;7922;43.622;1.476;2024-02-04T03:04:23;101765.69;;;5.52;100.00
15646;BME280;7922;43.622;1.476;2024-02-04T03:06:48;101783.16;;;5.43;100.00
15646;BME280;7922;43.622;1.476;2024-02-04T03:09:13;101773.22;;;5.06;100.00
15646;BME280;7922;43.622;1.476;2024-02-04T03:11:39;101713.28;;;4.64;100.00
15646;BME280;7922;43.622;1.476;2024-02-04T03:14:04;101760.88;;;5.01;100.00
15646;BME280;7922;43.622;1.476;2024-02-04T03:16:29;101754.00;;;5.12;100.00
15646;BME280;7922;43.622;1.476;2024-02-04T03:18:54;101696.94;;;4.93;100.00
15646;BME280;7922;43.622;1.476;2024-02-04T03:21:20;101764.69;;;5.35;100.00
15646;BME280;7922;43.622;1.476;2024-02-04T03:23:45;101739.25;;;5.32;100.00
15646;BME280;7922;43.622;1.476;2024-02-04T03:26:11;101711.16;;;5.21;100.00
15646;BME280;7922;43.622;1.476;2024-02-04T03:28:36;101740.16;;;5.31;100.00
15646;BME280;7922;43.622;1.476;2024-02-04T03:31:02;101696.09;;;4.98;100.00
15646;BME280;7922;43.622;1.476;2024-02-04T03:33:27;101741.75;;;5.13;100.00
15646;BME280;7922;43.622;1.476;2024-02-04T03:35:53;101766.38;;;5.27;100.00
15646;BME280;7922;43.622;1.476;2024-02-04T03:38:18;101712.81;;;5.11;100.00
15646;BME280;7922;43.622;1.476;2024-02-04T03:40:44;101748.09;;;5.42;100.00
15646;BME280;7922;43.622;1.476;2024-02-04T03:43:09;101686.63;;;5.17;100.00
15646;BME280;7922;43.622;1.476;2024-02-04T03:45:37;101752.50;;;5.46;100.00
15646;BME280;7922;43.622;1.476;2024-02-04T03:48:03;101689.16;;;5.08;100.00
15646;BME280;7922;43.622;1.476;2024-02-04T03:50:28;101706.69;;;5.11;100.00
15646;BME280;7922;43.622;1.476;2024-02-04T03:52:53;101738.31;;;5.21;100.00
15646;BME280;7922;43.622;1.476;2024-02-04T03:55:19;101694.31;;;4.97;100.00
15646;BME280;7922;43.622;1.476;2024-02-04T03:57:44;101741.91;;;5.31;100.00
15646;BME280;7922;43.622;1.476;2024-02-04T04:00:10;101754.19;;;5.35;100.00
15646;BME280;7922;43.622;1.476;2024-02-04T04:02:36;101747.19;;;5.36;100.00
15646;BME280;7922;43.622;1.476;2024-02-04T04:05:01;101747.25;;;5.46;100.00
15646;BME280;7922;43.622;1.476;2024-02-04T04:07:26;101749.97;;;5.60;100.00
15646;BME280;7922;43.622;1.476;2024-02-04T04:09:51;101689.28;;;5.25;100.00
15646;BME280;7922;43.622;1.476;2024-02-04T04:12:17;101718.28;;;5.39;100.00
15646;BME280;7922;43.622;1.476;2024-02-04T04:14:42;101726.19;;;5.40;100.00
15646;BME280;7922;43.622;1.476;2024-02-04T04:17:07;101734.09;;;5.48;100.00
15646;BME280;7922;43.622;1.476;2024-02-04T04:19:32;101656.81;;;5.09;100.00
15646;BME280;7922;43.622;1.476;2024-02-04T04:21:58;101720.97;;;5.48;100.00
15646;BME280;7922;43.622;1.476;2024-02-04T04:24:23;101726.28;;;5.54;100.00
15646;BME280;7922;43.622;1.476;2024-02-04T04:26:48;101730.63;;;5.49;100.00
15646;BME280;7922;43.622;1.476;2024-02-04T04:29:14;101688.44;;;5.27;100.00
15646;BME280;7922;43.622;1.476;2024-02-04T04:31:39;101727.09;;;5.47;100.00
15646;BME280;7922;43.622;1.476;2024-02-04T04:34:05;101703.41;;;5.38;100.00
15646;BME280;7922;43.622;1.476;2024-02-04T04:36:30;101607.56;;;4.80;100.00
15646;BME280;7922;43.622;1.476;2024-02-04T04:38:55;101703.38;;;5.36;100.00
15646;BME280;7922;43.622;1.476;2024-02-04T04:41:21;101695.44;;;5.28;100.00
15646;BME280;7922;43.622;1.476;2024-02-04T04:43:46;101718.31;;;5.43;100.00
15646;BME280;7922;43.622;1.476;2024-02-04T04:46:11;101710.38;;;5.36;100.00
15646;BME280;7922;43.622;1.476;2024-02-04T04:48:37;101721.00;;;5.51;100.00
15646;BME280;7922;43.622;1.476;2024-02-04T04:51:02;101695.50;;;5.35;100.00
15646;BME280;7922;43.622;1.476;2024-02-04T04:53:27;101646.25;;;5.03;100.00
15646;BME280;7922;43.622;1.476;2024-02-04T04:55:52;101727.97;;;5.46;100.00
15646;BME280;7922;43.622;1.476;2024-02-04T04:58:18;101708.66;;;5.38;100.00
15646;BME280;7922;43.622;1.476;2024-02-04T05:00:43;101652.38;;;5.02;100.00
15646;BME280;7922;43.622;1.476;2024-02-04T05:03:08;101730.59;;;5.41;100.00
15646;BME280;7922;43.622;1.476;2024-02-04T05:05:33;101670.72;;;5.00;100.00
15646;BME280;7922;43.622;1.476;2024-02-04T05:07:59;101722.53;;;5.20;100.00
15646;BME280;7922;43.622;1.476;2024-02-04T05:10:24;101701.44;;;5.09;100.00
15646;BME280;7922;43.622;1.476;2024-02-04T05:12:49;101736.63;;;5.31;100.00
15646;BME280;7922;43.622;1.476;2024-02-04T05:15:15;101718.16;;;5.16;100.00
15646;BME280;7922;43.622;1.476;2024-02-04T05:17:40;101699.63;;;5.03;100.00
15646;BME280;7922;43.622;1.476;2024-02-04T05:20:06;101731.31;;;5.26;100.00
15646;BME280;7922;43.622;1.476;2024-02-04T05:22:32;101732.19;;;5.25;100.00
15646;BME280;7922;43.622;1.476;2024-02-04T05:24:57;101682.09;;;5.01;100.00
15646;BME280;7922;43.622;1.476;2024-02-04T05:27:23;101722.59;;;5.27;100.00
15646;BME280;7922;43.622;1.476;2024-02-04T05:29:48;101720.81;;;5.25;100.00
15646;BME280;7922;43.622;1.476;2024-02-04T05:32:13;101671.56;;;4.95;100.00
15646;BME280;7922;43.622;1.476;2024-02-04T05:34:38;101663.66;;;4.93;100.00
15646;BME280;7922;43.622;1.476;2024-02-04T05:37:04;101712.88;;;5.17;100.00
15646;BME280;7922;43.622;1.476;2024-02-04T05:39:29;101712.94;;;5.25;100.00
15646;BME280;7922;43.622;1.476;2024-02-04T05:41:54;101726.09;;;5.29;100.00
15646;BME280;7922;43.622;1.476;2024-02-04T05:44:19;101696.25;;;5.18;100.00
15646;BME280;7922;43.622;1.476;2024-02-04T05:46:45;101716.53;;;5.36;100.00
15646;BME280;7922;43.622;1.476;2024-02-04T05:49:10;101690.09;;;5.13;100.00
15646;BME280;7922;43.622;1.476;2024-02-04T05:51:39;101664.56;;;4.95;100.00
15646;BME280;7922;43.622;1.476;2024-02-04T05:54:04;101751.53;;;5.32;100.00
15646;BME280;7922;43.622;1.476;2024-02-04T05:56:30;101719.88;;;5.14;100.00
15646;BME280;7922;43.622;1.476;2024-02-04T05:58:55;101762.91;;;5.31;100.00
15646;BME280;7922;43.622;1.476;2024-02-04T06:01:20;101754.81;;;5.08;100.00
15646;BME280;7922;43.622;1.476;2024-02-04T06:03:45;101764.34;;;4.97;100.00
15646;BME280;7922;43.622;1.476;2024-02-04T06:06:15;101766.06;;;4.93;100.00
15646;BME280;7922;43.622;1.476;2024-02-04T06:08:40;101705.47;;;4.69;100.00
15646;BME280;7922;43.622;1.476;2024-02-04T06:11:05;101714.19;;;4.68;100.00
15646;BME280;7922;43.622;1.476;2024-02-04T06:13:34;101805.66;;;5.13;100.00
15646;BME280;7922;43.622;1.476;2024-02-04T06:15:59;101788.09;;;5.06;100.00
15646;BME280;7922;43.622;1.476;2024-02-04T06:18:24;101781.94;;;5.04;100.00
15646;BME280;7922;43.622;1.476;2024-02-04T06:20:50;101717.66;;;4.62;100.00
15646;BME280;7922;43.622;1.476;2024-02-04T06:23:15;101725.69;;;4.77;100.00
15646;BME280;7922;43.622;1.476;2024-02-04T06:25:40;101710.63;;;4.61;100.00
15646;BME280;7922;43.622;1.476;2024-02-04T06:28:05;101768.75;;;4.98;100.00
15646;BME280;7922;43.622;1.476;2024-02-04T06:30:31;101785.38;;;4.97;100.00
15646;BME280;7922;43.622;1.476;2024-02-04T06:32:56;101767.78;;;4.90;100.00
15646;BME280;7922;43.622;1.476;2024-02-04T06:35:21;101767.06;;;5.01;100.00
15646;BME280;7922;43.622;1.476;2024-02-04T06:37:46;101774.06;;;5.04;100.00
15646;BME280;7922;43.622;1.476;2024-02-04T06:40:12;101782.91;;;5.12;100.00
15646;BME280;7922;43.622;1.476;2024-02-04T06:42:37;101763.59;;;5.10;100.00
15646;BME280;7922;43.622;1.476;2024-02-04T06:45:02;101761.84;;;5.11;100.00
15646;BME280;7922;43.622;1.476;2024-02-04T06:47:28;101750.44;;;5.05;100.00
15646;BME280;7922;43.622;1.476;2024-02-04T06:49:53;101767.22;;;5.20;100.00
15646;BME280;7922;43.622;1.476;2024-02-04T06:52:18;101783.03;;;5.27;100.00
15646;BME280;7922;43.622;1.476;2024-02-04T06:54:44;101797.03;;;5.29;100.00
15646;BME280;7922;43.622;1.476;2024-02-04T06:57:09;101783.81;;;5.17;100.00
15646;BME280;7922;43.622;1.476;2024-02-04T06:59:34;101786.47;;;5.22;100.00
15646;BME280;7922;43.622;1.476;2024-02-04T07:01:59;101784.78;;;5.27;100.00
15646;BME280;7922;43.622;1.476;2024-02-04T07:04:25;101790.91;;;5.27;100.00
15646;BME280;7922;43.622;1.476;2024-02-04T07:06:50;101781.25;;;5.23;100.00
15646;BME280;7922;43.622;1.476;2024-02-04T07:09:15;101789.06;;;5.17;100.00
15646;BME280;7922;43.622;1.476;2024-02-04T07:11:41;101796.03;;;5.14;100.00
15646;BME280;7922;43.622;1.476;2024-02-04T07:14:06;101791.47;;;4.91;100.00
15646;BME280;7922;43.622;1.476;2024-02-04T07:16:31;101794.19;;;5.03;100.00
15646;BME280;7922;43.622;1.476;2024-02-04T07:18:57;101813.66;;;5.24;100.00
15646;BME280;7922;43.622;1.476;2024-02-04T07:21:22;101745.94;;;4.92;100.00
15646;BME280;7922;43.622;1.476;2024-02-04T07:23:47;101798.66;;;5.15;100.00
15646;BME280;7922;43.622;1.476;2024-02-04T07:26:13;101789.97;;;5.21;100.00
15646;BME280;7922;43.622;1.476;2024-02-04T07:28:38;101817.16;;;5.24;100.00
15646;BME280;7922;43.622;1.476;2024-02-04T07:31:03;101789.69;;;4.90;100.00
15646;BME280;7922;43.622;1.476;2024-02-04T07:33:29;101808.22;;;5.07;100.00
15646;BME280;7922;43.622;1.476;2024-02-04T07:35:54;101783.69;;;5.02;100.00
15646;BME280;7922;43.622;1.476;2024-02-04T07:38:19;101811.91;;;5.26;100.00
15646;BME280;7922;43.622;1.476;2024-02-04T07:40:45;101810.13;;;5.22;100.00
15646;BME280;7922;43.622;1.476;2024-02-04T07:43:10;101810.16;;;5.23;100.00
15646;BME280;7922;43.622;1.476;2024-02-04T07:45:35;101800.38;;;5.12;100.00
15646;BME280;7922;43.622;1.476;2024-02-04T07:48:00;101819.84;;;5.30;100.00
15646;BME280;7922;43.622;1.476;2024-02-04T07:50:26;101810.91;;;5.13;100.00
15646;BME280;7922;43.622;1.476;2024-02-04T07:52:51;101830.25;;;5.20;100.00
15646;BME280;7922;43.622;1.476;2024-02-04T07:55:17;101823.31;;;5.28;100.00
15646;BME280;7922;43.622;1.476;2024-02-04T07:57:42;101826.91;;;5.38;100.00
15646;BME280;7922;43.622;1.476;2024-02-04T08:00:07;101776.75;;;5.12;100.00
15646;BME280;7922;43.622;1.476;2024-02-04T08:02:33;101809.38;;;5.37;100.00
15646;BME280;7922;43.622;1.476;2024-02-04T08:04:58;101834.88;;;5.50;100.00
15646;BME280;7922;43.622;1.476;2024-02-04T08:07:23;101782.94;;;5.17;100.00
15646;BME280;7922;43.622;1.476;2024-02-04T08:09:48;101786.41;;;5.14;100.00
15646;BME280;7922;43.622;1.476;2024-02-04T08:12:14;101830.44;;;5.44;100.00
15646;BME280;7922;43.622;1.476;2024-02-04T08:14:39;101838.44;;;5.52;100.00
15646;BME280;7922;43.622;1.476;2024-02-04T08:17:04;101846.28;;;5.50;100.00
15646;BME280;7922;43.622;1.476;2024-02-04T08:19:29;101781.19;;;5.16;100.00
15646;BME280;7922;43.622;1.476;2024-02-04T08:21:55;101845.47;;;5.58;100.00
15646;BME280;7922;43.622;1.476;2024-02-04T08:24:20;101845.47;;;5.58;100.00
15646;BME280;7922;43.622;1.476;2024-02-04T08:26:45;101842.81;;;5.59;100.00
15646;BME280;7922;43.622;1.476;2024-02-04T08:29:11;101834.94;;;5.59;100.00
15646;BME280;7922;43.622;1.476;2024-02-04T08:31:36;101852.63;;;5.75;100.00
15646;BME280;7922;43.622;1.476;2024-02-04T08:34:02;101829.69;;;5.59;100.00
15646;BME280;7922;43.622;1.476;2024-02-04T08:36:27;101795.38;;;5.41;100.00
15646;BME280;7922;43.622;1.476;2024-02-04T08:38:52;101858.72;;;5.73;100.00
15646;BME280;7922;43.622;1.476;2024-02-04T08:41:17;101849.06;;;5.69;100.00
15646;BME280;7922;43.622;1.476;2024-02-04T08:43:43;101860.47;;;5.72;100.00
15646;BME280;7922;43.622;1.476;2024-02-04T08:46:08;101833.97;;;5.48;100.00
15646;BME280;7922;43.622;1.476;2024-02-04T08:48:33;101806.84;;;5.49;100.00
15646;BME280;7922;43.622;1.476;2024-02-04T08:50:59;101864.94;;;5.83;100.00
15646;BME280;7922;43.622;1.476;2024-02-04T08:53:24;101805.97;;;5.50;100.00
15646;BME280;7922;43.622;1.476;2024-02-04T08:55:49;101851.78;;;5.81;100.00
15646;BME280;7922;43.622;1.476;2024-02-04T08:58:15;101860.56;;;5.83;100.00
15646;BME280;7922;43.622;1.476;2024-02-04T09:00:40;101840.41;;;5.82;100.00
15646;BME280;7922;43.622;1.476;2024-02-04T09:03:05;101788.53;;;5.60;100.00
15646;BME280;7922;43.622;1.476;2024-02-04T09:05:30;101799.00;;;5.52;100.00
15646;BME280;7922;43.622;1.476;2024-02-04T09:07:56;101789.44;;;5.65;100.00
15646;BME280;7922;43.622;1.476;2024-02-04T09:10:21;101852.00;;;6.13;100.00
15646;BME280;7922;43.622;1.476;2024-02-04T09:12:47;101867.00;;;6.22;100.00
15646;BME280;7922;43.622;1.476;2024-02-04T09:15:15;101871.41;;;6.26;100.00
15646;BME280;7922;43.622;1.476;2024-02-04T09:17:40;101867.00;;;6.25;100.00
15646;BME280;7922;43.622;1.476;2024-02-04T09:20:06;101866.16;;;6.35;100.00
15646;BME280;7922;43.622;1.476;2024-02-04T09:22:32;101808.06;;;5.98;100.00
15646;BME280;7922;43.622;1.476;2024-02-04T09:24:57;101841.59;;;6.29;100.00
15646;BME280;7922;43.622;1.476;2024-02-04T09:27:22;101846.88;;;6.33;100.00
15646;BME280;7922;43.622;1.476;2024-02-04T09:29:48;101834.59;;;6.34;100.00
15646;BME280;7922;43.622;1.476;2024-02-04T09:32:13;101790.59;;;6.03;100.00
15646;BME280;7922;43.622;1.476;2024-02-04T09:34:38;101820.53;;;6.32;100.00
15646;BME280;7922;43.622;1.476;2024-02-04T09:37:03;101862.75;;;6.50;100.00
15646;BME280;7922;43.622;1.476;2024-02-04T09:39:29;101857.53;;;6.58;100.00
15646;BME280;7922;43.622;1.476;2024-02-04T09:41:54;101791.59;;;6.35;100.00
15646;BME280;7922;43.622;1.476;2024-02-04T09:44:20;101771.38;;;6.27;100.00
15646;BME280;7922;43.622;1.476;2024-02-04T09:46:46;101846.97;;;6.61;99.87
15646;BME280;7922;43.622;1.476;2024-02-04T09:49:12;101835.56;;;6.59;100.00
15646;BME280;7922;43.622;1.476;2024-02-04T09:51:39;101859.34;;;6.82;100.00
15646;BME280;7922;43.622;1.476;2024-02-04T09:54:05;101835.63;;;6.77;100.00
15646;BME280;7922;43.622;1.476;2024-02-04T09:56:31;101829.47;;;6.73;99.03
15646;BME280;7922;43.622;1.476;2024-02-04T09:58:58;101851.44;;;6.75;99.51
15646;BME280;7922;43.622;1.476;2024-02-04T10:01:23;101851.41;;;6.66;99.37
15646;BME280;7922;43.622;1.476;2024-02-04T10:03:48;101846.13;;;6.71;99.63
15646;BME280;7922;43.622;1.476;2024-02-04T10:06:14;101837.41;;;6.80;99.52
15646;BME280;7922;43.622;1.476;2024-02-04T10:08:39;101839.16;;;6.81;99.59
15646;BME280;7922;43.622;1.476;2024-02-04T10:11:04;101852.34;;;6.88;98.77
15646;BME280;7922;43.622;1.476;2024-02-04T10:13:30;101855.00;;;7.00;98.24
15646;BME280;7922;43.622;1.476;2024-02-04T10:15:55;101828.69;;;7.05;98.18
15646;BME280;7922;43.622;1.476;2024-02-04T10:18:21;101828.66;;;7.00;98.19
15646;BME280;7922;43.622;1.476;2024-02-04T10:20:46;101798.69;;;6.56;98.47
15646;BME280;7922;43.622;1.476;2024-02-04T10:23:11;101848.81;;;6.80;99.85
15646;BME280;7922;43.622;1.476;2024-02-04T10:25:37;101857.66;;;6.94;99.37
15646;BME280;7922;43.622;1.476;2024-02-04T10:28:02;101851.56;;;7.15;98.99
15646;BME280;7922;43.622;1.476;2024-02-04T10:30:28;101859.47;;;7.32;98.31
15646;BME280;7922;43.622;1.476;2024-02-04T10:32:54;101776.84;;;6.99;97.98
15646;BME280;7922;43.622;1.476;2024-02-04T10:35:22;101822.56;;;7.43;97.16
15646;BME280;7922;43.622;1.476;2024-02-04T10:37:49;101844.53;;;7.65;96.77
15646;BME280;7922;43.622;1.476;2024-02-04T10:40:14;101844.53;;;7.65;96.05
15646;BME280;7922;43.622;1.476;2024-02-04T10:42:42;101774.25;;;7.16;96.86
15646;BME280;7922;43.622;1.476;2024-02-04T10:45:08;101813.75;;;7.55;96.45
15646;BME280;7922;43.622;1.476;2024-02-04T10:47:37;101819.91;;;7.55;95.67
15646;BME280;7922;43.622;1.476;2024-02-04T10:50:03;101770.72;;;7.27;95.39
15646;BME280;7922;43.622;1.476;2024-02-04T10:52:38;101836.63;;;7.60;95.28
15646;BME280;7922;43.622;1.476;2024-02-04T10:55:08;101831.34;;;7.40;95.76
15646;BME280;7922;43.622;1.476;2024-02-04T10:57:34;101832.22;;;7.44;96.12
15646;BME280;7922;43.622;1.476;2024-02-04T11:00:00;101832.22;;;7.47;95.64
15646;BME280;7922;43.622;1.476;2024-02-04T11:02:26;101802.34;;;7.25;95.90
15646;BME280;7922;43.622;1.476;2024-02-04T11:04:53;101855.06;;;7.36;96.87
15646;BME280;7922;43.622;1.476;2024-02-04T11:07:20;101853.31;;;7.30;97.62
15646;BME280;7922;43.622;1.476;2024-02-04T11:09:47;101841.91;;;7.46;97.40
15646;BME280;7922;43.622;1.476;2024-02-04T11:12:14;101865.56;;;7.07;98.11
15646;BME280;7922;43.622;1.476;2024-02-04T11:14:44;101841.84;;;7.11;98.61
15646;BME280;7922;43.622;1.476;2024-02-04T11:25:49;101851.56;;;7.75;95.63
15646;BME280;7922;43.622;1.476;2024-02-04T11:28:16;101836.59;;;7.89;94.90
15646;BME280;7922;43.622;1.476;2024-02-04T11:30:43;101782.13;;;7.64;93.87
15646;BME280;7922;43.622;1.476;2024-02-04T11:33:10;101767.19;;;7.21;94.74
15646;BME280;7922;43.622;1.476;2024-02-04T11:35:36;101815.53;;;7.34;96.12
15646;BME280;7922;43.622;1.476;2024-02-04T11:38:04;101805.88;;;7.48;96.29
15646;BME280;7922;43.622;1.476;2024-02-04T11:40:34;101811.13;;;7.32;96.61
15646;BME280;7922;43.622;1.476;2024-02-04T11:43:06;101805.84;;;7.61;96.18
15646;BME280;7922;43.622;1.476;2024-02-04T11:45:32;101799.72;;;7.66;95.27
15646;BME280;7922;43.622;1.476;2024-02-04T11:48:01;101805.84;;;7.81;94.46
15646;BME280;7922;43.622;1.476;2024-02-04T11:50:30;101801.41;;;7.87;94.03
15646;BME280;7922;43.622;1.476;2024-02-04T11:55:30;101773.34;;;7.45;95.19
15646;BME280;7922;43.622;1.476;2024-02-04T11:57:55;101707.44;;;7.33;93.94
15646;BME280;7922;43.622;1.476;2024-02-04T12:00:21;101740.84;;;7.02;95.86
15646;BME280;7922;43.622;1.476;2024-02-04T12:02:47;101763.66;;;7.70;95.09
15646;BME280;7922;43.622;1.476;2024-02-04T12:05:12;101755.75;;;7.59;94.19
15646;BME280;7922;43.622;1.476;2024-02-04T12:07:39;101754.88;;;7.50;95.60
15646;BME280;7922;43.622;1.476;2024-02-04T12:10:05;101770.59;;;7.99;93.77
15646;BME280;7922;43.622;1.476;2024-02-04T12:12:31;101755.69;;;7.90;92.27
15646;BME280;7922;43.622;1.476;2024-02-04T12:14:56;101765.28;;;8.17;93.72
15646;BME280;7922;43.622;1.476;2024-02-04T12:17:21;101696.75;;;7.92;91.35
15646;BME280;7922;43.622;1.476;2024-02-04T12:19:47;101744.09;;;8.28;90.84
15646;BME280;7922;43.622;1.476;2024-02-04T12:22:13;101735.25;;;8.47;89.97
15646;BME280;7922;43.622;1.476;2024-02-04T12:24:38;101725.63;;;8.29;90.45
15646;BME280;7922;43.622;1.476;2024-02-04T12:27:04;101725.66;;;8.18;89.67
15646;BME280;7922;43.622;1.476;2024-02-04T12:29:30;101708.06;;;8.22;90.52
15646;BME280;7922;43.622;1.476;2024-02-04T12:32:00;101682.56;;;8.21;89.77
15646;BME280;7922;43.622;1.476;2024-02-04T12:34:25;101712.38;;;8.34;89.87
15646;BME280;7922;43.622;1.476;2024-02-04T12:36:58;101723.69;;;8.62;89.36
15646;BME280;7922;43.622;1.476;2024-02-04T12:39:23;101717.66;;;8.41;89.01
15646;BME280;7922;43.622;1.476;2024-02-04T12:41:51;101674.78;;;7.92;90.59
15646;BME280;7922;43.622;1.476;2024-02-04T12:44:18;101711.41;;;8.58;89.37
15646;BME280;7922;43.622;1.476;2024-02-04T12:46:43;101667.34;;;8.60;87.63
15646;BME280;7922;43.622;1.476;2024-02-04T12:49:09;101725.03;;;9.20;86.54
15646;BME280;7922;43.622;1.476;2024-02-04T12:51:34;101715.28;;;9.25;85.77
15646;BME280;7922;43.622;1.476;2024-02-04T12:56:28;101700.88;;;9.55;85.36
15646;BME280;7922;43.622;1.476;2024-02-04T12:58:53;101656.06;;;9.41;84.52
15646;BME280;7922;43.622;1.476;2024-02-04T13:01:18;101700.25;;;9.28;84.59
15646;BME280;7922;43.622;1.476;2024-02-04T13:03:44;101686.47;;;8.97;85.61
15646;BME280;7922;43.622;1.476;2024-02-04T13:06:09;101693.41;;;9.09;85.91
15646;BME280;7922;43.622;1.476;2024-02-04T13:08:34;101699.31;;;9.37;84.34
15646;BME280;7922;43.622;1.476;2024-02-04T13:10:59;101695.47;;;8.68;86.50